Time;durP1;ratioP1;P1;durP2;ratioP2;P2;SDS_P1;SDS_P2;PMS_P1;PMS_P2;Temp;Humidity;BMP_temperature;BMP_pressure;BME280_temperature;BME280_humidity;BME280_pressure;Samples;Min_cycle;Max_cycle;Signal;HPM_P1;HPM_P2
2024/01/02 00:00:59;;;;;;;;;;;16.90;55.20;;;;;;7398598;19;3223;-74
2024/01/02 00:03:24;;;;;;;;;;;16.90;55.30;;;;;;7395514;19;4560;-74
2024/01/02 00:05:50;;;;;;;;;;;16.90;55.20;;;;;;7398173;19;3833;-74
2024/01/02 00:08:15;;;;;;;;;;;16.90;55.40;;;;;;7396658;19;2689;-73
2024/01/02 00:10:41;;;;;;;;;;;16.80;55.30;;;;;;7398521;19;2561;-74
2024/01/02 00:13:06;;;;;;;;;;;16.80;55.40;;;;;;7394711;19;3505;-74
2024/01/02 00:15:31;;;;;;;;;;;16.80;55.40;;;;;;7398377;19;2812;-74
2024/01/02 00:17:58;;;;;;;;;;;16.80;55.40;;;;;;7399587;19;1787;-75
2024/01/02 00:20:23;;;;;;;;;;;16.80;55.40;;;;;;7397490;19;4956;-75
2024/01/02 00:22:48;;;;;;;;;;;16.70;55.50;;;;;;7401985;19;3125;-74
2024/01/02 00:25:14;;;;;;;;;;;16.70;55.50;;;;;;7399644;19;1920;-74
2024/01/02 00:27:40;;;;;;;;;;;16.70;55.60;;;;;;7394810;19;3559;-74
2024/01/02 00:30:06;;;;;;;;;;;16.70;55.60;;;;;;7393755;19;4469;-75
2024/01/02 00:32:31;;;;;;;;;;;16.70;55.70;;;;;;7399841;19;3541;-74
2024/01/02 00:34:57;;;;;;;;;;;16.60;55.60;;;;;;7396942;19;3749;-74
2024/01/02 00:37:23;;;;;;;;;;;16.60;55.70;;;;;;7400130;19;3324;-74
2024/01/02 00:39:49;;;;;;;;;;;16.60;55.70;;;;;;7397000;19;4687;-74
2024/01/02 00:42:14;;;;;;;;;;;16.60;55.80;;;;;;7397837;19;4884;-74
2024/01/02 00:44:40;;;;;;;;;;;16.60;55.80;;;;;;7397654;19;4629;-74
2024/01/02 00:47:07;;;;;;;;;;;16.60;55.80;;;;;;7398294;19;3360;-75
2024/01/02 00:49:33;;;;;;;;;;;16.60;55.80;;;;;;7397279;19;3898;-74
2024/01/02 00:51:58;;;;;;;;;;;16.60;55.80;;;;;;7398990;19;3133;-74
2024/01/02 00:54:23;;;;;;;;;;;16.50;55.80;;;;;;7399325;19;1640;-74
2024/01/02 00:56:49;;;;;;;;;;;16.50;55.90;;;;;;7397397;19;3768;-75
2024/01/02 00:59:14;;;;;;;;;;;16.50;55.90;;;;;;7397031;19;2120;-75
2024/01/02 01:01:40;;;;;;;;;;;16.50;56.00;;;;;;7397899;19;1973;-74
2024/01/02 01:04:07;;;;;;;;;;;16.50;56.00;;;;;;7396693;19;4104;-74
2024/01/02 01:06:33;;;;;;;;;;;16.40;56.00;;;;;;7394620;19;4455;-74
2024/01/02 01:08:58;;;;;;;;;;;16.40;56.10;;;;;;7396799;19;3741;-74
2024/01/02 01:11:24;;;;;;;;;;;16.40;56.00;;;;;;7396515;19;3812;-74
2024/01/02 01:13:49;;;;;;;;;;;16.40;56.10;;;;;;7398943;19;2272;-74
2024/01/02 01:16:15;;;;;;;;;;;16.40;56.10;;;;;;7396539;19;1881;-74
2024/01/02 01:18:40;;;;;;;;;;;16.40;56.10;;;;;;7395468;19;3651;-74
2024/01/02 01:21:05;;;;;;;;;;;16.40;56.10;;;;;;7396510;19;2267;-74
2024/01/02 01:23:31;;;;;;;;;;;16.30;56.70;;;;;;7397231;19;1900;-74
2024/01/02 01:25:56;;;;;;;;;;;16.30;56.10;;;;;;7393838;19;3773;-74
2024/01/02 01:28:22;;;;;;;;;;;16.30;56.10;;;;;;7396234;19;1833;-74
2024/01/02 01:30:48;;;;;;;;;;;16.30;56.10;;;;;;7396645;19;2046;-74
2024/01/02 01:33:13;;;;;;;;;;;16.30;56.20;;;;;;7392562;19;3598;-74
2024/01/02 01:35:38;;;;;;;;;;;16.30;56.20;;;;;;7395832;19;1982;-74
2024/01/02 01:38:04;;;;;;;;;;;16.30;56.20;;;;;;7395353;19;1581;-74
2024/01/02 01:40:30;;;;;;;;;;;16.30;56.30;;;;;;7395497;19;3493;-74
2024/01/02 01:42:55;;;;;;;;;;;16.20;56.20;;;;;;7396301;19;1898;-74
2024/01/02 01:45:20;;;;;;;;;;;16.20;56.20;;;;;;7394303;19;3897;-74
2024/01/02 01:47:46;;;;;;;;;;;16.20;56.30;;;;;;7391457;19;3630;-75
2024/01/02 01:50:12;;;;;;;;;;;16.20;56.30;;;;;;7392459;19;2712;-74
2024/01/02 01:52:37;;;;;;;;;;;16.20;56.20;;;;;;7395837;19;1996;-74
2024/01/02 01:55:03;;;;;;;;;;;16.10;56.30;;;;;;7391304;19;3265;-74
2024/01/02 01:57:28;;;;;;;;;;;16.10;56.30;;;;;;7395479;19;2120;-74
2024/01/02 01:59:54;;;;;;;;;;;16.10;56.40;;;;;;7392886;19;4607;-74
2024/01/02 02:02:19;;;;;;;;;;;16.10;56.40;;;;;;7390558;19;4256;-74
2024/01/02 02:04:45;;;;;;;;;;;16.10;56.40;;;;;;7392557;19;4572;-74
2024/01/02 02:07:11;;;;;;;;;;;16.00;56.40;;;;;;7393002;19;2797;-74
2024/01/02 02:09:36;;;;;;;;;;;16.00;56.50;;;;;;7394277;19;3678;-74
2024/01/02 02:12:02;;;;;;;;;;;16.00;56.40;;;;;;7394037;19;4595;-74
2024/01/02 02:14:27;;;;;;;;;;;16.10;56.30;;;;;;7396149;19;3570;-74
2024/01/02 02:16:53;;;;;;;;;;;16.20;56.20;;;;;;7392519;19;3700;-74
2024/01/02 02:19:18;;;;;;;;;;;16.20;55.90;;;;;;7394635;19;2614;-74
2024/01/02 02:21:44;;;;;;;;;;;16.30;55.80;;;;;;7396546;19;1855;-74
2024/01/02 02:24:09;;;;;;;;;;;16.30;55.60;;;;;;7390012;19;4341;-74
2024/01/02 02:26:35;;;;;;;;;;;16.40;55.40;;;;;;7394058;19;3094;-74
2024/01/02 02:29:00;;;;;;;;;;;16.50;55.20;;;;;;7391427;19;4674;-74
2024/01/02 02:31:26;;;;;;;;;;;16.70;54.70;;;;;;7393691;19;3829;-73
2024/01/02 02:33:51;;;;;;;;;;;16.80;54.40;;;;;;7393698;19;1978;-74
2024/01/02 02:36:16;;;;;;;;;;;17.00;54.00;;;;;;7394736;19;1922;-74
2024/01/02 02:38:42;;;;;;;;;;;17.20;53.60;;;;;;7392181;19;3987;-74
2024/01/02 02:41:08;;;;;;;;;;;17.30;53.50;;;;;;7391840;19;3605;-74
2024/01/02 02:43:34;;;;;;;;;;;17.30;53.20;;;;;;7396322;19;3273;-74
2024/01/02 02:46:00;;;;;;;;;;;17.40;52.90;;;;;;7390842;19;4018;-74
2024/01/02 02:48:25;;;;;;;;;;;17.40;52.90;;;;;;7392858;19;2463;-74
2024/01/02 02:50:50;;;;;;;;;;;17.40;52.90;;;;;;7394705;19;2532;-75
2024/01/02 02:53:16;;;;;;;;;;;17.40;52.80;;;;;;7394362;19;4898;-74
2024/01/02 02:55:42;;;;;;;;;;;17.40;52.90;;;;;;7395959;19;2045;-74
2024/01/02 02:58:07;;;;;;;;;;;17.40;52.90;;;;;;7396504;19;1506;-74
2024/01/02 03:00:34;;;;;;;;;;;17.30;52.90;;;;;;7391842;19;4868;-74
2024/01/02 03:02:59;;;;;;;;;;;17.30;53.00;;;;;;7394315;19;1896;-74
2024/01/02 03:05:25;;;;;;;;;;;17.30;53.20;;;;;;7394909;19;1330;-74
2024/01/02 03:07:50;;;;;;;;;;;17.20;53.20;;;;;;7393741;19;5344;-74
2024/01/02 03:10:17;;;;;;;;;;;17.20;53.20;;;;;;7401279;19;2024;-74
2024/01/02 03:12:43;;;;;;;;;;;17.20;53.10;;;;;;7398052;19;4656;-75
2024/01/02 03:15:09;;;;;;;;;;;17.20;53.20;;;;;;7398878;19;4591;-75
2024/01/02 03:17:34;;;;;;;;;;;17.20;53.20;;;;;;7399813;19;3512;-75
2024/01/02 03:20:00;;;;;;;;;;;17.20;53.20;;;;;;7401107;19;3180;-75
2024/01/02 03:22:25;;;;;;;;;;;17.20;53.20;;;;;;7398066;19;4888;-74
2024/01/02 03:24:51;;;;;;;;;;;17.20;53.30;;;;;;7401373;19;1914;-74
2024/01/02 03:27:16;;;;;;;;;;;17.10;53.20;;;;;;7398101;19;2050;-74
2024/01/02 03:29:42;;;;;;;;;;;17.10;53.40;;;;;;7398869;19;4109;-73
2024/01/02 03:32:07;;;;;;;;;;;17.00;53.50;;;;;;7400617;19;2649;-75
2024/01/02 03:34:35;;;;;;;;;;;17.00;53.50;;;;;;7400504;19;1989;-74
2024/01/02 03:37:01;;;;;;;;;;;16.90;53.70;;;;;;7394793;19;5403;-74
2024/01/02 03:39:26;;;;;;;;;;;16.90;53.70;;;;;;7400665;19;1425;-75
2024/01/02 03:41:52;;;;;;;;;;;16.90;53.70;;;;;;7399229;19;2230;-74
2024/01/02 03:44:18;;;;;;;;;;;16.90;53.70;;;;;;7396998;19;4573;-74
2024/01/02 03:46:43;;;;;;;;;;;16.80;53.80;;;;;;7396998;19;4637;-74
2024/01/02 03:49:09;;;;;;;;;;;16.80;53.90;;;;;;7393967;19;3553;-74
2024/01/02 03:51:34;;;;;;;;;;;16.70;53.90;;;;;;7398108;19;3065;-74
2024/01/02 03:54:00;;;;;;;;;;;16.70;53.90;;;;;;7399763;19;2028;-74
2024/01/02 03:56:25;;;;;;;;;;;16.70;53.90;;;;;;7396630;19;3700;-74
2024/01/02 03:58:51;;;;;;;;;;;16.70;53.90;;;;;;7399923;19;3052;-74
2024/01/02 04:01:16;;;;;;;;;;;16.80;53.90;;;;;;7398825;19;1966;-74
2024/01/02 04:03:42;;;;;;;;;;;16.80;53.80;;;;;;7396936;19;3754;-74
2024/01/02 04:06:07;;;;;;;;;;;16.80;53.80;;;;;;7400930;19;1853;-74
2024/01/02 04:08:32;;;;;;;;;;;16.80;53.80;;;;;;7396099;19;1928;-74
2024/01/02 04:10:58;;;;;;;;;;;16.80;53.80;;;;;;7395812;19;4136;-74
2024/01/02 04:13:23;;;;;;;;;;;16.80;53.80;;;;;;7398618;19;2697;-74
2024/01/02 04:15:49;;;;;;;;;;;16.80;53.80;;;;;;7400430;19;1532;-74
2024/01/02 04:18:14;;;;;;;;;;;16.80;53.70;;;;;;7394335;19;3317;-74
2024/01/02 04:20:40;;;;;;;;;;;16.80;53.70;;;;;;7399081;19;3102;-74
2024/01/02 04:23:05;;;;;;;;;;;16.80;53.70;;;;;;7397157;19;4213;-74
2024/01/02 04:25:31;;;;;;;;;;;16.80;53.60;;;;;;7396349;19;3700;-74
2024/01/02 04:27:56;;;;;;;;;;;16.80;53.60;;;;;;7393716;19;4576;-74
2024/01/02 04:30:22;;;;;;;;;;;16.80;53.60;;;;;;7399612;19;2541;-74
2024/01/02 04:32:48;;;;;;;;;;;16.80;53.70;;;;;;7396797;19;4830;-74
2024/01/02 04:35:13;;;;;;;;;;;16.80;53.70;;;;;;7397465;19;3125;-74
2024/01/02 04:37:39;;;;;;;;;;;16.80;53.60;;;;;;7400000;19;2107;-74
2024/01/02 04:40:10;;;;;;;;;;;16.80;53.60;;;;;;7398238;19;2711;-74
2024/01/02 04:42:36;;;;;;;;;;;16.80;53.60;;;;;;7396579;19;3253;-74
2024/01/02 04:45:02;;;;;;;;;;;16.80;53.60;;;;;;7397048;19;4417;-74
2024/01/02 04:47:28;;;;;;;;;;;16.80;53.60;;;;;;7394413;19;3651;-74
2024/01/02 04:49:53;;;;;;;;;;;16.80;53.60;;;;;;7400817;19;2976;-74
2024/01/02 04:52:19;;;;;;;;;;;16.70;53.60;;;;;;7392656;19;3492;-74
2024/01/02 04:54:45;;;;;;;;;;;16.70;53.70;;;;;;7393080;19;3682;-74
2024/01/02 04:57:11;;;;;;;;;;;16.70;53.80;;;;;;7395759;19;3206;-74
2024/01/02 04:59:36;;;;;;;;;;;16.70;53.80;;;;;;7394421;19;4646;-74
2024/01/02 05:02:01;;;;;;;;;;;16.70;53.70;;;;;;7390430;19;5090;-74
2024/01/02 05:04:27;;;;;;;;;;;16.70;53.80;;;;;;7396452;19;2264;-74
2024/01/02 05:06:52;;;;;;;;;;;16.70;53.60;;;;;;7396342;19;2356;-74
2024/01/02 05:09:18;;;;;;;;;;;16.70;53.60;;;;;;7394998;19;3738;-75
2024/01/02 05:11:43;;;;;;;;;;;16.70;53.80;;;;;;7396355;19;2100;-74
2024/01/02 05:14:09;;;;;;;;;;;16.60;53.80;;;;;;7396956;19;1900;-74
2024/01/02 05:16:34;;;;;;;;;;;16.60;53.70;;;;;;7391553;19;6007;-74
2024/01/02 05:19:00;;;;;;;;;;;16.60;53.60;;;;;;7397152;19;3080;-74
2024/01/02 05:21:27;;;;;;;;;;;16.60;53.70;;;;;;7396910;19;1631;-74
2024/01/02 05:23:52;;;;;;;;;;;16.50;53.80;;;;;;7393490;19;4859;-74
2024/01/02 05:26:18;;;;;;;;;;;16.50;53.80;;;;;;7397129;19;4533;-74
2024/01/02 05:28:43;;;;;;;;;;;16.60;53.80;;;;;;7395134;19;3123;-74
2024/01/02 05:31:08;;;;;;;;;;;16.60;53.70;;;;;;7393194;19;2898;-75
2024/01/02 05:33:34;;;;;;;;;;;16.60;53.70;;;;;;7397028;19;1845;-74
2024/01/02 05:35:59;;;;;;;;;;;16.70;53.50;;;;;;7397770;19;1851;-74
2024/01/02 05:38:25;;;;;;;;;;;16.60;53.50;;;;;;7393726;19;4958;-74
2024/01/02 05:40:51;;;;;;;;;;;16.60;53.50;;;;;;7397153;19;1421;-74
2024/01/02 05:43:16;;;;;;;;;;;16.60;53.40;;;;;;7396290;19;1753;-74
2024/01/02 05:45:41;;;;;;;;;;;16.70;53.50;;;;;;7391813;19;4474;-74
2024/01/02 05:48:09;;;;;;;;;;;16.60;53.40;;;;;;7392527;19;2595;-74
2024/01/02 05:50:34;;;;;;;;;;;16.70;53.40;;;;;;7394231;19;2580;-74
2024/01/02 05:53:00;;;;;;;;;;;16.70;53.40;;;;;;7390050;19;3607;-74
2024/01/02 05:55:25;;;;;;;;;;;16.70;53.50;;;;;;7395998;19;1774;-74
2024/01/02 05:57:51;;;;;;;;;;;16.60;53.40;;;;;;7394612;19;4750;-74
2024/01/02 06:00:16;;;;;;;;;;;16.60;53.50;;;;;;7393552;19;4540;-74
2024/01/02 06:02:41;;;;;;;;;;;16.60;53.50;;;;;;7394899;19;3320;-74
2024/01/02 06:05:07;;;;;;;;;;;16.60;53.60;;;;;;7391836;19;5006;-74
2024/01/02 06:07:33;;;;;;;;;;;16.50;53.40;;;;;;7391216;19;3807;-74
2024/01/02 06:09:58;;;;;;;;;;;16.60;53.50;;;;;;7394193;19;1893;-74
2024/01/02 06:12:24;;;;;;;;;;;16.60;53.50;;;;;;7396200;19;1958;-74
2024/01/02 06:14:49;;;;;;;;;;;16.70;53.50;;;;;;7393992;19;4948;-75
2024/01/02 06:17:14;;;;;;;;;;;16.60;53.40;;;;;;7389510;19;4610;-74
2024/01/02 06:19:40;;;;;;;;;;;16.60;53.50;;;;;;7394725;19;3233;-74
2024/01/02 06:22:05;;;;;;;;;;;16.60;53.50;;;;;;7391502;19;6076;-74
2024/01/02 06:24:31;;;;;;;;;;;16.60;53.40;;;;;;7394470;19;1906;-74
2024/01/02 06:26:56;;;;;;;;;;;16.70;53.50;;;;;;7391904;19;4682;-74
2024/01/02 06:29:21;;;;;;;;;;;16.60;53.40;;;;;;7390562;19;4586;-74
2024/01/02 06:31:47;;;;;;;;;;;16.60;53.30;;;;;;7394569;19;3651;-74
2024/01/02 06:34:12;;;;;;;;;;;16.60;53.50;;;;;;7395718;19;2358;-74
2024/01/02 06:36:38;;;;;;;;;;;16.60;53.50;;;;;;7392658;19;3658;-75
2024/01/02 06:39:04;;;;;;;;;;;16.60;53.30;;;;;;7395553;19;1860;-75
2024/01/02 06:41:29;;;;;;;;;;;16.70;53.30;;;;;;7396165;19;4626;-74
2024/01/02 06:43:54;;;;;;;;;;;16.60;53.30;;;;;;7396005;19;3714;-74
2024/01/02 06:46:20;;;;;;;;;;;16.70;53.20;;;;;;7399481;19;4543;-74
2024/01/02 06:48:45;;;;;;;;;;;16.70;53.30;;;;;;7399495;19;2104;-75
2024/01/02 06:51:11;;;;;;;;;;;16.70;53.10;;;;;;7398502;19;3148;-74
2024/01/02 06:53:36;;;;;;;;;;;16.70;53.10;;;;;;7403006;19;2188;-74
2024/01/02 06:56:03;;;;;;;;;;;16.70;52.90;;;;;;7404824;19;1946;-75
2024/01/02 06:58:28;;;;;;;;;;;16.80;52.90;;;;;;7401030;19;4021;-75
2024/01/02 07:00:53;;;;;;;;;;;16.80;52.90;;;;;;7401127;19;3615;-74
2024/01/02 07:03:21;;;;;;;;;;;16.80;52.90;;;;;;7399304;19;4861;-75
2024/01/02 07:05:46;;;;;;;;;;;16.80;53.00;;;;;;7399783;19;4614;-75
2024/01/02 07:08:12;;;;;;;;;;;16.80;52.90;;;;;;7397617;19;3659;-74
2024/01/02 07:10:37;;;;;;;;;;;16.80;53.00;;;;;;7401784;19;1741;-74
2024/01/02 07:13:03;;;;;;;;;;;16.80;52.90;;;;;;7398705;19;3526;-75
2024/01/02 07:15:28;;;;;;;;;;;16.80;52.90;;;;;;7403989;19;1851;-74
2024/01/02 07:17:54;;;;;;;;;;;16.80;52.90;;;;;;7401893;19;1584;-75
2024/01/02 07:20:20;;;;;;;;;;;16.80;52.90;;;;;;7398932;19;4516;-74
2024/01/02 07:22:45;;;;;;;;;;;16.70;52.90;;;;;;7402004;19;1725;-75
2024/01/02 07:25:12;;;;;;;;;;;16.70;53.00;;;;;;7398220;19;3441;-74
2024/01/02 07:27:37;;;;;;;;;;;16.80;52.80;;;;;;7395981;19;2839;-74
2024/01/02 07:30:04;;;;;;;;;;;16.80;52.70;;;;;;7399390;19;5624;-74
2024/01/02 07:32:29;;;;;;;;;;;16.80;52.70;;;;;;7399938;19;3381;-74
2024/01/02 07:34:55;;;;;;;;;;;16.80;52.70;;;;;;7396562;19;4491;-74
2024/01/02 07:37:20;;;;;;;;;;;16.90;52.60;;;;;;7401497;19;1787;-74
2024/01/02 07:39:46;;;;;;;;;;;16.90;52.50;;;;;;7401058;19;1932;-75
2024/01/02 07:42:12;;;;;;;;;;;16.90;52.40;;;;;;7391312;19;4812;-74
2024/01/02 07:44:38;;;;;;;;;;;16.90;52.50;;;;;;7393131;19;4760;-74
2024/01/02 07:47:03;;;;;;;;;;;16.80;52.60;;;;;;7397187;19;4346;-75
2024/01/02 07:49:29;;;;;;;;;;;16.90;53.10;;;;;;7400430;19;3588;-74
2024/01/02 07:51:54;;;;;;;;;;;16.90;52.40;;;;;;7400441;19;1855;-75
2024/01/02 07:54:20;;;;;;;;;;;16.90;52.50;;;;;;7398589;19;3151;-74
2024/01/02 07:56:46;;;;;;;;;;;16.90;52.40;;;;;;7399791;19;4083;-75
2024/01/02 07:59:15;;;;;;;;;;;16.90;52.50;;;;;;7395847;19;2042;-74
2024/01/02 08:01:40;;;;;;;;;;;16.90;52.50;;;;;;7399698;19;3662;-75
2024/01/02 08:04:06;;;;;;;;;;;16.70;52.50;;;;;;7393447;19;4534;-75
2024/01/02 08:06:31;;;;;;;;;;;16.80;52.40;;;;;;7399119;19;2136;-74
2024/01/02 08:08:57;;;;;;;;;;;16.90;52.50;;;;;;7400756;19;1312;-75
2024/01/02 08:11:22;;;;;;;;;;;16.90;52.40;;;;;;7394595;19;4761;-74
2024/01/02 08:13:48;;;;;;;;;;;16.90;52.40;;;;;;7400246;19;1595;-75
2024/01/02 08:16:13;;;;;;;;;;;16.90;52.50;;;;;;7400878;19;1969;-74
2024/01/02 08:18:43;;;;;;;;;;;16.80;52.70;;;;;;7397674;19;4012;-74
2024/01/02 08:21:08;;;;;;;;;;;16.80;52.60;;;;;;7398636;19;1708;-74
2024/01/02 08:23:35;;;;;;;;;;;16.80;52.50;;;;;;7400420;19;1811;-75
2024/01/02 08:26:02;;;;;;;;;;;16.80;52.40;;;;;;7398327;19;4295;-74
2024/01/02 08:28:28;;;;;;;;;;;16.80;52.50;;;;;;7397163;19;1845;-74
2024/01/02 08:30:53;;;;;;;;;;;16.80;52.60;;;;;;7396205;19;3585;-74
2024/01/02 08:33:19;;;;;;;;;;;16.80;52.40;;;;;;7398750;19;3110;-74
2024/01/02 08:35:44;;;;;;;;;;;16.90;52.40;;;;;;7398822;19;2254;-75
2024/01/02 08:38:10;;;;;;;;;;;16.90;52.50;;;;;;7394685;19;4190;-74
2024/01/02 08:40:35;;;;;;;;;;;16.90;52.40;;;;;;7400107;19;2896;-75
2024/01/02 08:43:01;;;;;;;;;;;16.90;52.50;;;;;;7399050;19;2210;-75
2024/01/02 08:45:27;;;;;;;;;;;17.00;52.40;;;;;;7398399;19;4634;-74
2024/01/02 08:47:52;;;;;;;;;;;17.00;52.40;;;;;;7393677;19;3517;-75
2024/01/02 08:50:18;;;;;;;;;;;17.00;52.40;;;;;;7399022;19;1838;-75
2024/01/02 08:52:47;;;;;;;;;;;17.00;52.30;;;;;;7396111;19;4123;-75
2024/01/02 08:55:13;;;;;;;;;;;17.00;52.40;;;;;;7398565;19;3145;-75
2024/01/02 08:57:38;;;;;;;;;;;17.00;52.20;;;;;;7395786;19;1871;-75
2024/01/02 09:00:07;;;;;;;;;;;17.00;52.30;;;;;;7396608;19;3599;-74
2024/01/02 09:02:32;;;;;;;;;;;17.00;52.30;;;;;;7392459;19;4046;-75
2024/01/02 09:04:58;;;;;;;;;;;17.00;52.20;;;;;;7394379;19;2658;-75
2024/01/02 09:07:23;;;;;;;;;;;17.00;52.20;;;;;;7394050;19;4427;-75
2024/01/02 09:09:49;;;;;;;;;;;17.00;52.20;;;;;;7392288;19;4159;-75
2024/01/02 09:12:14;;;;;;;;;;;17.10;52.20;;;;;;7394122;19;2386;-74
2024/01/02 09:14:40;;;;;;;;;;;17.10;52.20;;;;;;7396774;19;3948;-75
2024/01/02 09:17:05;;;;;;;;;;;17.00;52.30;;;;;;7395281;19;4670;-75
2024/01/02 09:19:31;;;;;;;;;;;17.00;52.20;;;;;;7398619;19;3254;-75
2024/01/02 09:21:56;;;;;;;;;;;17.10;52.10;;;;;;7395471;19;3226;-75
2024/01/02 09:24:21;;;;;;;;;;;17.10;52.10;;;;;;7398216;19;1884;-75
2024/01/02 09:26:50;;;;;;;;;;;17.10;52.20;;;;;;7395187;19;1869;-74
2024/01/02 09:29:15;;;;;;;;;;;17.00;52.10;;;;;;7394037;19;3800;-75
2024/01/02 09:31:40;;;;;;;;;;;17.00;52.20;;;;;;7400426;19;3291;-74
2024/01/02 09:34:06;;;;;;;;;;;17.00;52.20;;;;;;7403225;19;2208;-74
2024/01/02 09:36:31;;;;;;;;;;;17.00;52.30;;;;;;7398722;19;4989;-76
2024/01/02 09:38:57;;;;;;;;;;;17.10;52.40;;;;;;7391386;19;4841;-76
2024/01/02 09:41:52;;;;;;;;;;;17.00;52.50;;;;;;7391743;19;2879;-74
2024/01/02 09:44:22;;;;;;;;;;;17.00;52.40;;;;;;7389612;19;4023;-74
2024/01/02 09:46:51;;;;;;;;;;;17.10;52.40;;;;;;7395253;19;3184;-74
2024/01/02 09:49:26;;;;;;;;;;;17.00;53.10;;;;;;7396961;19;2132;-74
2024/01/02 09:51:52;;;;;;;;;;;17.00;52.40;;;;;;7391634;19;4536;-74
2024/01/02 09:54:17;;;;;;;;;;;17.00;52.50;;;;;;7395696;19;3597;-74
2024/01/02 09:56:55;;;;;;;;;;;16.90;52.50;;;;;;7397074;19;1937;-74
2024/01/02 09:59:42;;;;;;;;;;;17.00;52.50;;;;;;7395675;19;3645;-74
2024/01/02 10:02:18;;;;;;;;;;;17.00;52.50;;;;;;7392246;19;1839;-74
2024/01/02 10:04:50;;;;;;;;;;;17.00;52.50;;;;;;7394722;19;3172;-75
2024/01/02 10:07:24;;;;;;;;;;;17.00;52.50;;;;;;7393758;19;3121;-75
2024/01/02 10:09:58;;;;;;;;;;;17.00;52.50;;;;;;7391639;19;4517;-75
2024/01/02 10:12:34;;;;;;;;;;;17.00;52.50;;;;;;7386544;19;3754;-75
2024/01/02 10:15:18;;;;;;;;;;;17.00;52.50;;;;;;7392451;19;2623;-74
2024/01/02 10:18:11;;;;;;;;;;;17.00;52.50;;;;;;7390391;19;1942;-75
2024/01/02 10:20:41;;;;;;;;;;;17.00;52.50;;;;;;7391836;19;3336;-74
2024/01/02 10:23:24;;;;;;;;;;;17.00;52.50;;;;;;7393084;19;1816;-75
2024/01/02 10:25:51;;;;;;;;;;;17.00;52.40;;;;;;7393666;19;3390;-75
2024/01/02 10:28:18;;;;;;;;;;;17.10;52.30;;;;;;7390337;19;3596;-74
2024/01/02 10:30:47;;;;;;;;;;;17.00;53.10;;;;;;7392926;19;3564;-75
2024/01/02 10:33:17;;;;;;;;;;;16.90;52.40;;;;;;7394085;19;1901;-74
2024/01/02 10:35:52;;;;;;;;;;;17.00;52.50;;;;;;7394696;19;4154;-74
2024/01/02 10:38:26;;;;;;;;;;;17.10;52.40;;;;;;7390683;19;3936;-74
2024/01/02 10:41:06;;;;;;;;;;;17.30;52.10;;;;;;7395241;19;2699;-74
2024/01/02 10:43:35;;;;;;;;;;;17.40;51.90;;;;;;7395947;19;1566;-74
2024/01/02 10:46:10;;;;;;;;;;;17.90;51.40;;;;;;7396364;19;3046;-74
2024/01/02 10:48:54;;;;;;;;;;;18.40;50.60;;;;;;7396494;19;1854;-74
2024/01/02 10:51:22;;;;;;;;;;;19.00;49.50;;;;;;7391062;19;1695;-74
2024/01/02 10:53:51;;;;;;;;;;;19.40;48.80;;;;;;7392901;19;1890;-74
2024/01/02 10:56:26;;;;;;;;;;;19.60;48.40;;;;;;7392932;19;2635;-74
2024/01/02 10:59:00;;;;;;;;;;;20.00;48.00;;;;;;7394529;19;1911;-75
2024/01/02 11:01:26;;;;;;;;;;;20.00;48.00;;;;;;7392197;19;1686;-74
2024/01/02 11:03:57;;;;;;;;;;;20.10;47.80;;;;;;7393276;19;1761;-74
2024/01/02 11:06:42;;;;;;;;;;;20.20;47.70;;;;;;7391918;19;2555;-74
2024/01/02 11:09:08;;;;;;;;;;;20.30;47.90;;;;;;7392427;19;1693;-74
2024/01/02 11:11:35;;;;;;;;;;;20.40;48.00;;;;;;7393910;19;1888;-74
2024/01/02 11:14:01;;;;;;;;;;;20.50;48.00;;;;;;7392875;19;1534;-75
2024/01/02 11:16:27;;;;;;;;;;;20.50;48.00;;;;;;7395166;19;1591;-74
2024/01/02 11:18:54;;;;;;;;;;;20.50;47.80;;;;;;7393350;19;1598;-74
2024/01/02 11:21:23;;;;;;;;;;;20.50;48.10;;;;;;7391274;19;2242;-74
2024/01/02 11:23:49;;;;;;;;;;;20.50;48.30;;;;;;7392223;19;1835;-74
2024/01/02 11:26:15;;;;;;;;;;;20.60;48.10;;;;;;7389047;19;3707;-74
2024/01/02 11:28:41;;;;;;;;;;;20.60;48.00;;;;;;7400671;19;1845;-74
2024/01/02 11:31:08;;;;;;;;;;;20.70;48.00;;;;;;7401843;19;1568;-75
2024/01/02 11:34:03;;;;;;;;;;;20.70;48.10;;;;;;7398613;19;4922;-75
2024/01/02 11:36:47;;;;;;;;;;;20.80;48.10;;;;;;7399081;19;1711;-75
2024/01/02 11:39:13;;;;;;;;;;;20.80;48.00;;;;;;7400244;19;1760;-75
2024/01/02 11:41:52;;;;;;;;;;;20.80;48.10;;;;;;7400517;19;4061;-75
2024/01/02 11:44:17;;;;;;;;;;;20.90;48.20;;;;;;7401468;19;1624;-74
2024/01/02 11:46:43;;;;;;;;;;;20.90;48.20;;;;;;7401479;19;1849;-74
2024/01/02 11:49:09;;;;;;;;;;;20.90;48.30;;;;;;7397745;19;2842;-75
2024/01/02 11:51:35;;;;;;;;;;;20.90;48.20;;;;;;7402713;19;1391;-75
2024/01/02 11:54:07;;;;;;;;;;;20.90;48.30;;;;;;7401920;19;2309;-75
2024/01/02 11:56:33;;;;;;;;;;;20.90;48.30;;;;;;7401083;19;3177;-75
2024/01/02 11:59:06;;;;;;;;;;;20.90;48.40;;;;;;7401876;19;1355;-75
2024/01/02 12:01:31;;;;;;;;;;;20.90;48.40;;;;;;7398763;19;2879;-74
2024/01/02 12:04:02;;;;;;;;;;;21.00;48.30;;;;;;7402190;19;2816;-75
2024/01/02 12:06:31;;;;;;;;;;;21.00;48.40;;;;;;7399966;19;1845;-74
2024/01/02 12:09:04;;;;;;;;;;;21.00;48.40;;;;;;7394898;19;2920;-76
2024/01/02 12:11:29;;;;;;;;;;;21.00;48.40;;;;;;7400469;19;3152;-74
2024/01/02 12:14:05;;;;;;;;;;;21.00;48.30;;;;;;7401237;19;1422;-74
2024/01/02 12:16:32;;;;;;;;;;;21.10;48.30;;;;;;7400679;19;2932;-74
2024/01/02 12:18:57;;;;;;;;;;;21.20;48.30;;;;;;7403124;19;1562;-75
2024/01/02 12:21:23;;;;;;;;;;;21.10;48.40;;;;;;7402003;19;1379;-75
2024/01/02 12:23:49;;;;;;;;;;;21.10;48.70;;;;;;7402580;19;4279;-74
2024/01/02 12:26:16;;;;;;;;;;;21.10;48.80;;;;;;7398250;19;832;-75
2024/01/02 12:28:41;;;;;;;;;;;21.20;49.00;;;;;;7397659;19;1809;-75
2024/01/02 12:31:22;;;;;;;;;;;21.20;48.90;;;;;;7395315;19;2869;-75
2024/01/02 12:33:50;;;;;;;;;;;21.20;49.00;;;;;;7397356;19;2588;-75
2024/01/02 12:36:25;;;;;;;;;;;21.20;49.00;;;;;;7400899;19;1499;-75
2024/01/02 12:38:51;;;;;;;;;;;21.20;49.30;;;;;;7397259;19;2810;-75
2024/01/02 12:41:20;;;;;;;;;;;21.20;49.30;;;;;;7399462;19;1353;-76
2024/01/02 12:43:48;;;;;;;;;;;21.20;49.40;;;;;;7398340;19;1647;-75
2024/01/02 12:46:16;;;;;;;;;;;21.20;49.60;;;;;;7396281;19;2851;-75
2024/01/02 12:49:09;;;;;;;;;;;21.30;49.60;;;;;;7393963;19;1810;-75
2024/01/02 12:51:35;;;;;;;;;;;21.30;49.40;;;;;;7398304;19;1705;-75
2024/01/02 12:54:01;;;;;;;;;;;21.30;49.50;;;;;;7400578;19;2765;-75
2024/01/02 12:56:26;;;;;;;;;;;21.30;49.50;;;;;;7396926;19;1445;-75
2024/01/02 12:58:52;;;;;;;;;;;21.30;49.40;;;;;;7395185;19;2553;-75
2024/01/02 13:01:18;;;;;;;;;;;21.30;49.60;;;;;;7394646;19;2674;-75
2024/01/02 13:03:43;;;;;;;;;;;21.20;49.70;;;;;;7393749;19;4121;-74
2024/01/02 13:06:09;;;;;;;;;;;21.20;49.70;;;;;;7397496;19;2592;-75
2024/01/02 13:08:35;;;;;;;;;;;21.20;49.80;;;;;;7397875;19;2855;-75
2024/01/02 13:11:00;;;;;;;;;;;21.30;49.80;;;;;;7391721;19;3006;-75
2024/01/02 13:13:26;;;;;;;;;;;21.20;49.30;;;;;;7396945;19;2751;-75
2024/01/02 13:15:53;;;;;;;;;;;21.20;49.30;;;;;;7394766;19;4152;-75
2024/01/02 13:18:19;;;;;;;;;;;21.20;49.50;;;;;;7396739;19;2500;-75
2024/01/02 13:20:44;;;;;;;;;;;21.20;49.60;;;;;;7398540;19;2500;-75
2024/01/02 13:23:10;;;;;;;;;;;21.10;49.60;;;;;;7396156;19;2558;-75
2024/01/02 13:25:39;;;;;;;;;;;21.30;49.60;;;;;;7398083;19;2899;-75
2024/01/02 13:28:17;;;;;;;;;;;21.20;49.60;;;;;;7397411;19;1838;-75
2024/01/02 13:30:44;;;;;;;;;;;21.20;49.50;;;;;;7400433;19;1799;-75
2024/01/02 13:33:09;;;;;;;;;;;21.20;49.70;;;;;;7397066;19;1684;-75
2024/01/02 13:35:35;;;;;;;;;;;21.20;49.60;;;;;;7396026;19;3070;-75
2024/01/02 13:38:02;;;;;;;;;;;21.10;49.60;;;;;;7394781;19;2965;-75
2024/01/02 13:40:28;;;;;;;;;;;21.30;49.70;;;;;;7398278;19;1591;-75
2024/01/02 13:42:54;;;;;;;;;;;21.30;49.30;;;;;;7394761;19;2414;-75
2024/01/02 13:45:25;;;;;;;;;;;21.30;49.40;;;;;;7393106;19;2652;-74
2024/01/02 13:47:53;;;;;;;;;;;21.30;49.50;;;;;;7392660;19;4327;-74
2024/01/02 13:50:31;;;;;;;;;;;21.40;49.30;;;;;;7393448;19;4388;-75
2024/01/02 13:53:04;;;;;;;;;;;21.30;49.30;;;;;;7395850;19;1512;-74
2024/01/02 13:55:30;;;;;;;;;;;21.30;49.30;;;;;;7397817;19;2246;-74
2024/01/02 13:57:55;;;;;;;;;;;21.30;49.40;;;;;;7389127;19;3888;-75
2024/01/02 14:00:22;;;;;;;;;;;21.30;49.40;;;;;;7396163;19;1681;-75
2024/01/02 14:02:49;;;;;;;;;;;21.30;49.30;;;;;;7390344;19;3990;-75
2024/01/02 14:05:15;;;;;;;;;;;21.30;49.50;;;;;;7396207;19;2596;-74
2024/01/02 14:07:41;;;;;;;;;;;21.30;49.30;;;;;;7394587;19;1999;-75
2024/01/02 14:10:06;;;;;;;;;;;21.40;49.10;;;;;;7393646;19;2622;-75
2024/01/02 14:12:38;;;;;;;;;;;21.40;49.20;;;;;;7394812;19;3059;-75
2024/01/02 14:15:04;;;;;;;;;;;21.40;49.20;;;;;;7396882;19;1707;-75
2024/01/02 14:17:32;;;;;;;;;;;21.30;49.10;;;;;;7395470;19;2832;-75
2024/01/02 14:20:20;;;;;;;;;;;21.40;49.20;;;;;;7395192;19;3139;-75
2024/01/02 14:23:01;;;;;;;;;;;21.50;49.20;;;;;;7396809;19;1528;-74
2024/01/02 14:25:30;;;;;;;;;;;21.40;49.30;;;;;;7397543;19;1595;-74
2024/01/02 14:28:11;;;;;;;;;;;21.40;49.30;;;;;;7393108;19;4217;-75
2024/01/02 14:30:37;;;;;;;;;;;21.40;49.40;;;;;;7396819;19;3111;-75